Time;durP1;ratioP1;P1;durP2;ratioP2;P2;SDS_P1;SDS_P2;PMS_P1;PMS_P2;Temp;Humidity;BMP_temperature;BMP_pressure;BME280_temperature;BME280_humidity;BME280_pressure;Samples;Min_cycle;Max_cycle;Signal;HPM_P1;HPM_P2
2022/09/24 00:01:40;;;;;;;11.32;9.23;;;;;;;13.94;79.51;98420.38;5039178;27;102806;-63
2022/09/24 00:04:10;;;;;;;10.02;8.43;;;;;;;13.80;81.07;98417.28;5041744;27;103568;-63
2022/09/24 00:06:40;;;;;;;10.32;9.07;;;;;;;13.60;81.99;98404.94;5034607;27;104666;-64
2022/09/24 00:09:09;;;;;;;8.50;7.70;;;;;;;13.81;82.76;98403.03;5038659;27;103268;-64
2022/09/24 00:11:38;;;;;;;6.57;5.97;;;;;;;14.29;80.43;98403.03;5036400;27;102715;-63
2022/09/24 00:14:07;;;;;;;6.72;6.13;;;;;;;14.56;78.34;98400.53;5035026;27;103876;-64
2022/09/24 00:16:35;;;;;;;6.13;5.63;;;;;;;14.75;77.57;98396.97;5035482;27;104515;-64
2022/09/24 00:19:04;;;;;;;8.00;7.20;;;;;;;14.59;77.82;98394.94;5037747;27;104135;-64
2022/09/24 00:21:33;;;;;;;9.30;8.40;;;;;;;14.41;78.53;98397.47;5038766;27;102748;-63
2022/09/24 00:24:02;;;;;;;8.90;8.00;;;;;;;14.42;79.05;98398.31;5036165;27;102666;-64
2022/09/24 00:29:19;;;;;;;9.47;8.67;;;;;;;13.78;81.51;98390.03;5035724;27;103327;-64
2022/09/24 00:31:48;;;;;;;12.68;9.75;;;;;;;13.35;84.63;98385.91;5041452;27;103159;-63
2022/09/24 00:34:16;;;;;;;8.90;8.00;;;;;;;13.79;83.44;98383.72;5038602;27;102769;-64
2022/09/24 00:36:45;;;;;;;10.53;8.57;;;;;;;13.82;83.03;98378.16;5038907;27;104002;-64
2022/09/24 00:39:14;;;;;;;10.48;9.35;;;;;;;13.82;82.51;98378.16;5035888;27;103135;-64
2022/09/24 00:41:43;;;;;;;10.27;9.15;;;;;;;13.84;81.87;98378.84;5037559;27;102867;-64
2022/09/24 00:44:53;;;;;;;6.18;5.68;;;;;;;14.42;79.65;98385.88;5037064;27;102886;-64
2022/09/24 00:47:30;;;;;;;6.90;6.28;;;;;;;14.67;78.39;98384.41;5033668;27;104660;-64
2022/09/24 00:50:23;;;;;;;8.05;7.35;;;;;;;14.60;78.04;98380.63;5040865;27;103235;-63
2022/09/24 00:52:56;;;;;;;9.60;8.20;;;;;;;14.45;78.11;98374.09;5012860;27;104086;-63
2022/09/24 00:55:24;;;;;;;7.80;7.10;;;;;;;14.60;78.07;98374.47;5018237;27;103963;-64
2022/09/24 00:57:56;;;;;;;9.18;8.27;;;;;;;14.62;78.03;98362.75;5015964;27;104510;-64
2022/09/24 01:00:25;;;;;;;9.10;8.25;;;;;;;14.69;77.96;98355.00;5036186;27;103265;-64
2022/09/24 01:02:59;;;;;;;12.68;10.77;;;;;;;14.24;80.22;98347.66;5032275;27;102713;-63
2022/09/24 01:05:26;;;;;;;12.60;11.40;;;;;;;13.67;83.06;98347.69;5036090;27;103899;-63
2022/09/24 01:07:56;;;;;;;11.95;10.85;;;;;;;13.62;84.34;98347.25;5017594;27;104441;-63
2022/09/24 01:10:48;;;;;;;11.32;10.30;;;;;;;13.73;83.61;98344.47;5016259;27;104501;-64
2022/09/24 01:13:43;;;;;;;8.93;8.02;;;;;;;14.37;80.90;98348.22;5035599;27;102635;-64
2022/09/24 01:16:27;;;;;;;6.93;6.25;;;;;;;14.62;79.34;98343.28;5018127;27;103676;-63
2022/09/24 01:19:08;;;;;;;6.55;5.95;;;;;;;14.72;78.41;98346.75;5037717;27;103634;-63
2022/09/24 01:21:44;;;;;;;8.60;7.87;;;;;;;14.71;78.15;98343.25;5036621;27;103683;-63
2022/09/24 01:24:39;;;;;;;8.90;8.10;;;;;;;14.77;77.94;98339.16;5034902;27;102717;-63
2022/09/24 01:27:13;;;;;;;9.68;8.68;;;;;;;14.67;77.26;98333.06;5033709;27;102838;-64
2022/09/24 01:29:56;;;;;;;11.57;10.48;;;;;;;14.44;79.51;98344.03;5035054;27;103108;-65
2022/09/24 01:32:28;;;;;;;8.75;8.05;;;;;;;14.48;80.20;98323.31;5033464;27;103291;-64
2022/09/24 01:35:02;;;;;;;8.38;7.68;;;;;;;14.67;78.87;98317.94;5036642;27;102978;-65
2022/09/24 01:37:33;;;;;;;10.37;8.57;;;;;;;14.72;78.11;98320.16;5037049;27;102913;-64
2022/09/24 01:40:04;;;;;;;9.10;8.30;;;;;;;14.69;78.00;98315.97;5035725;27;105042;-64
2022/09/24 01:42:35;;;;;;;7.78;7.10;;;;;;;14.77;77.78;98317.88;5034351;27;103330;-65
2022/09/24 01:45:06;;;;;;;7.95;7.20;;;;;;;14.75;77.70;98322.53;5035889;27;103231;-64
2022/09/24 01:47:37;;;;;;;9.23;8.40;;;;;;;14.67;78.01;98311.78;5037668;27;104098;-64
2022/09/24 01:50:06;;;;;;;9.77;8.80;;;;;;;14.60;77.88;98313.31;5034884;27;104194;-64
2022/09/24 01:52:38;;;;;;;8.85;8.05;;;;;;;14.50;78.45;98316.88;5038402;27;103244;-64
2022/09/24 01:55:11;;;;;;;8.43;7.63;;;;;;;14.68;77.15;98311.63;5038172;27;102651;-64
2022/09/24 01:57:45;;;;;;;6.75;6.20;;;;;;;14.76;76.48;98305.59;5035852;27;102785;-65
2022/09/24 02:00:16;;;;;;;9.23;8.35;;;;;;;14.68;76.55;98306.31;5017977;27;103518;-64
2022/09/24 02:02:49;;;;;;;12.90;10.50;;;;;;;14.28;78.54;98298.59;5031931;27;104110;-65
2022/09/24 02:05:23;;;;;;;12.55;11.05;;;;;;;13.88;80.71;98288.16;5037756;27;103220;-65
2022/09/24 02:07:57;;;;;;;9.77;8.77;;;;;;;14.23;79.92;98292.03;5038408;27;104037;-65
2022/09/24 02:10:31;;;;;;;9.45;8.45;;;;;;;14.40;78.68;98294.78;5034223;27;103472;-64
2022/09/24 02:13:03;;;;;;;10.48;9.40;;;;;;;14.41;78.28;98291.16;5037116;27;103433;-65
2022/09/24 02:15:40;;;;;;;9.40;8.45;;;;;;;14.46;78.24;98286.25;5017229;27;102838;-64
2022/09/24 02:18:11;;;;;;;8.60;7.80;;;;;;;14.50;78.40;98290.31;5020096;27;103885;-64
2022/09/24 02:20:42;;;;;;;9.60;8.63;;;;;;;14.54;78.15;98295.31;5036546;27;103040;-65
2022/09/24 02:23:11;;;;;;;9.68;8.77;;;;;;;14.65;77.69;98298.66;5037480;27;103346;-64
2022/09/24 02:25:43;;;;;;;7.60;6.90;;;;;;;14.70;77.35;98298.19;5038274;27;102713;-64
2022/09/24 02:28:10;;;;;;;9.65;8.82;;;;;;;14.70;76.86;98298.19;5036027;27;103732;-64
2022/09/24 02:30:44;;;;;;;7.90;7.20;;;;;;;14.63;77.29;98292.63;5020878;27;104351;-65
2022/09/24 02:35:57;;;;;;;11.40;10.00;;;;;;;14.32;78.90;98289.38;5036181;27;103091;-64
2022/09/24 02:38:25;;;;;;;9.87;8.97;;;;;;;14.48;78.21;98286.13;5037967;27;104272;-64
2022/09/24 02:40:54;;;;;;;6.47;5.88;;;;;;;14.62;76.88;98293.63;5035979;27;103475;-65
2022/09/24 02:43:22;;;;;;;8.00;7.23;;;;;;;14.65;77.09;98290.66;5036525;27;103348;-64
2022/09/24 02:45:51;;;;;;;8.95;8.05;;;;;;;14.60;76.10;98278.78;5040311;27;106842;-65
2022/09/24 02:48:19;;;;;;;9.15;8.10;;;;;;;14.38;78.17;98285.28;5041168;27;104184;-64
2022/09/24 02:50:46;;;;;;;9.70;8.80;;;;;;;14.26;78.90;98276.63;5039282;27;103952;-64
2022/09/24 02:53:14;;;;;;;8.40;7.45;;;;;;;14.48;78.01;98286.94;5039346;27;103263;-64
2022/09/24 02:55:42;;;;;;;10.30;9.20;;;;;;;14.46;77.38;98290.72;5039710;27;102767;-65
2022/09/24 02:58:12;;;;;;;9.57;8.68;;;;;;;14.38;79.03;98291.44;5037930;27;103644;-64
2022/09/24 03:00:40;;;;;;;11.68;10.48;;;;;;;14.02;80.33;98294.84;5040279;27;104126;-64
2022/09/24 03:03:09;;;;;;;12.07;10.88;;;;;;;13.72;82.87;98293.22;5019044;27;104120;-64
2022/09/24 03:05:40;;;;;;;11.02;10.02;;;;;;;13.64;83.78;98286.91;5039684;27;102760;-64
2022/09/24 03:08:10;;;;;;;11.13;10.13;;;;;;;13.70;83.78;98289.00;5038003;27;103673;-64
2022/09/24 03:10:38;;;;;;;7.47;6.78;;;;;;;14.15;81.55;98284.75;5018532;27;104167;-64
2022/09/24 03:13:09;;;;;;;6.45;5.95;;;;;;;14.41;79.77;98275.22;5037922;27;103258;-65
2022/09/24 03:15:39;;;;;;;6.83;6.23;;;;;;;14.56;78.93;98282.72;5039638;27;102712;-65
2022/09/24 03:18:08;;;;;;;8.20;7.47;;;;;;;14.57;77.92;98273.78;5036553;27;104010;-65
2022/09/24 03:20:36;;;;;;;8.23;7.43;;;;;;;14.50;78.41;98274.34;5037417;27;103980;-64
2022/09/24 03:23:04;;;;;;;10.52;9.52;;;;;;;13.75;81.59;98270.84;5034841;27;103300;-65
2022/09/24 03:25:32;;;;;;;10.98;9.88;;;;;;;13.49;84.59;98267.06;5037095;27;104293;-64
2022/09/24 03:27:59;;;;;;;9.10;8.27;;;;;;;13.99;82.80;98267.72;5037605;27;102812;-64
2022/09/24 03:33:16;;;;;;;13.38;11.98;;;;;;;12.88;87.38;98256.63;5038119;27;103191;-64
2022/09/24 03:35:46;;;;;;;11.18;10.07;;;;;;;13.35;86.84;98253.25;5040345;27;102720;-64
2022/09/24 03:38:16;;;;;;;10.25;9.20;;;;;;;13.89;83.98;98259.78;5038315;27;103968;-64
2022/09/24 03:40:43;;;;;;;12.25;11.07;;;;;;;13.43;83.80;98249.03;5039099;27;103322;-64
2022/09/24 03:43:11;;;;;;;11.73;9.87;;;;;;;13.61;84.61;98255.34;5021514;27;104233;-64
2022/09/24 03:45:39;;;;;;;11.13;9.93;;;;;;;13.87;83.04;98253.78;5039230;27;102673;-65
2022/09/24 03:48:07;;;;;;;10.63;9.63;;;;;;;13.92;82.57;98262.16;5035738;27;104175;-65
2022/09/24 03:50:37;;;;;;;11.37;10.27;;;;;;;13.78;82.37;98255.44;5037057;27;104641;-64
2022/09/24 03:53:05;;;;;;;7.72;7.10;;;;;;;14.02;81.96;98262.97;5037972;27;103261;-65
2022/09/24 03:55:33;;;;;;;12.70;11.50;;;;;;;13.22;84.39;98252.66;5035336;27;102687;-64
2022/09/24 03:58:01;;;;;;;12.77;11.37;;;;;;;13.17;86.65;98252.25;5038560;27;103009;-64
2022/09/24 04:00:28;;;;;;;11.27;10.27;;;;;;;13.53;85.17;98249.91;5037261;27;103379;-65
2022/09/24 04:02:56;;;;;;;10.45;9.40;;;;;;;13.83;83.10;98255.06;5019776;27;104386;-64
2022/09/24 04:05:24;;;;;;;11.05;9.98;;;;;;;13.88;81.74;98255.44;5019866;27;102635;-64
2022/09/24 04:07:55;;;;;;;8.77;8.07;;;;;;;14.13;81.46;98254.84;5035791;27;102652;-65
2022/09/24 04:10:24;;;;;;;8.98;8.18;;;;;;;14.19;81.13;98256.94;5019913;27;103227;-64
2022/09/24 04:12:52;;;;;;;10.18;9.18;;;;;;;14.25;80.21;98259.00;5036141;27;103230;-64
2022/09/24 04:15:20;;;;;;;14.20;11.27;;;;;;;13.60;82.56;98251.00;5037851;27;102982;-64
2022/09/24 04:17:50;;;;;;;8.07;7.28;;;;;;;14.00;82.82;98249.00;5037692;27;103948;-64
2022/09/24 04:20:21;;;;;;;12.15;10.93;;;;;;;13.44;83.39;98245.44;5035810;27;103649;-65
2022/09/24 04:22:49;;;;;;;12.60;11.27;;;;;;;13.07;85.94;98237.25;5039888;27;104352;-65
2022/09/24 04:25:20;;;;;;;12.45;11.15;;;;;;;13.17;86.71;98233.69;5018083;27;102773;-64
2022/09/24 04:27:53;;;;;;;11.32;10.18;;;;;;;13.77;84.11;98245.00;5034671;27;104626;-65
2022/09/24 04:30:22;;;;;;;8.35;7.55;;;;;;;14.03;82.54;98247.88;5037057;27;104095;-65
2022/09/24 04:32:50;;;;;;;8.93;8.13;;;;;;;14.12;81.89;98252.34;5039453;27;105622;-65
2022/09/24 04:35:19;;;;;;;8.27;7.47;;;;;;;14.30;81.09;98256.75;5037207;27;102760;-65
2022/09/24 04:37:49;;;;;;;7.72;7.03;;;;;;;14.43;80.22;98245.81;5035780;27;104519;-64
2022/09/24 04:40:18;;;;;;;12.60;9.43;;;;;;;13.77;83.02;98242.34;5035879;27;104245;-64
2022/09/24 04:42:46;;;;;;;8.43;7.72;;;;;;;13.91;83.59;98241.91;5034878;27;103229;-64
2022/09/24 04:45:19;;;;;;;10.20;9.20;;;;;;;14.13;81.63;98238.91;5035112;27;102624;-63
2022/09/24 04:47:51;;;;;;;12.60;11.30;;;;;;;13.35;84.33;98231.19;5035967;27;103569;-64
2022/09/24 04:50:20;;;;;;;8.83;8.03;;;;;;;13.98;83.56;98229.72;5037859;27;104608;-63
2022/09/24 04:52:52;;;;;;;10.95;9.95;;;;;;;13.92;81.93;98230.31;5015611;27;104006;-64
2022/09/24 04:55:22;;;;;;;8.30;7.68;;;;;;;14.18;81.73;98231.34;5039795;27;102957;-63
2022/09/24 04:57:50;;;;;;;6.60;6.00;;;;;;;14.47;79.61;98221.50;5035950;27;105404;-64
2022/09/24 05:00:20;;;;;;;10.25;9.30;;;;;;;14.31;78.87;98223.91;5036837;27;104171;-63
2022/09/24 05:02:56;;;;;;;11.18;10.05;;;;;;;13.60;82.80;98225.31;5020944;27;104146;-64
2022/09/24 05:05:24;;;;;;;10.98;9.95;;;;;;;13.62;82.57;98217.19;5035497;27;102674;-64
2022/09/24 05:07:51;;;;;;;10.95;9.85;;;;;;;13.17;86.17;98223.06;5034728;27;102835;-64
2022/09/24 05:10:19;;;;;;;11.63;10.43;;;;;;;12.89;86.69;98223.81;5032847;27;104149;-65
2022/09/24 05:12:49;;;;;;;11.05;9.98;;;;;;;13.23;86.13;98233.13;5037137;27;103089;-65
2022/09/24 05:15:18;;;;;;;10.73;9.73;;;;;;;13.27;85.62;98237.19;5038054;27;103041;-63
2022/09/24 05:17:46;;;;;;;7.40;6.72;;;;;;;13.72;84.05;98237.47;5036346;27;104163;-63
2022/09/24 05:20:16;;;;;;;12.13;9.60;;;;;;;13.65;83.26;98232.84;5035355;27;103256;-63
2022/09/24 05:22:46;;;;;;;7.30;6.70;;;;;;;13.86;83.20;98241.50;5037688;27;103318;-63
2022/09/24 05:25:15;;;;;;;7.10;6.50;;;;;;;14.05;81.81;98245.91;5018741;27;102937;-64
2022/09/24 05:27:45;;;;;;;8.20;7.50;;;;;;;14.16;80.95;98237.78;5036932;27;102992;-62
2022/09/24 05:30:16;;;;;;;8.83;8.00;;;;;;;14.19;80.32;98238.34;5034655;27;104559;-61
2022/09/24 05:32:45;;;;;;;8.32;7.63;;;;;;;14.12;80.78;98242.53;5037036;27;103332;-61
2022/09/24 05:35:12;;;;;;;8.60;7.80;;;;;;;14.04;81.53;98239.75;5033327;27;102769;-61
2022/09/24 05:37:41;;;;;;;7.50;6.90;;;;;;;14.15;80.66;98242.25;5018647;27;102857;-62
2022/09/24 05:43:01;;;;;;;8.68;7.88;;;;;;;14.27;80.29;98245.56;5032965;27;103185;-64
2022/09/24 05:45:33;;;;;;;8.20;7.40;;;;;;;14.26;80.07;98252.69;5032040;27;102893;-61
2022/09/24 05:48:03;;;;;;;9.05;8.20;;;;;;;14.37;79.30;98257.88;5031537;27;103871;-72
2022/09/24 05:50:33;;;;;;;7.85;7.15;;;;;;;14.44;79.01;98256.31;5033685;27;103422;-72
2022/09/24 05:53:05;;;;;;;7.82;7.13;;;;;;;14.51;78.39;98257.41;5034888;27;103827;-71
2022/09/24 05:55:33;;;;;;;8.98;8.07;;;;;;;14.55;77.95;98259.78;5032587;27;103001;-72
2022/09/24 05:58:06;;;;;;;8.88;8.15;;;;;;;14.43;78.56;98261.78;5034753;27;103752;-71
2022/09/24 06:00:35;;;;;;;8.20;7.50;;;;;;;14.50;78.58;98263.72;5034030;27;104036;-70
2022/09/24 06:03:06;;;;;;;7.03;6.43;;;;;;;14.62;77.99;98266.19;5034902;27;103288;-70
2022/09/24 06:05:35;;;;;;;9.63;8.63;;;;;;;14.50;78.09;98263.72;5031937;27;102612;-70
2022/09/24 06:08:03;;;;;;;8.73;7.93;;;;;;;14.70;77.43;98259.16;5036425;27;103418;-69
2022/09/24 06:10:31;;;;;;;8.00;7.30;;;;;;;14.76;77.17;98268.38;5037595;27;103354;-70
2022/09/24 06:12:59;;;;;;;6.35;5.82;;;;;;;14.91;76.63;98266.88;5021700;27;103444;-70
2022/09/24 06:15:27;;;;;;;8.50;7.70;;;;;;;14.94;76.28;98266.59;5038161;27;102629;-69
2022/09/24 06:17:56;;;;;;;8.70;7.90;;;;;;;14.92;76.52;98261.44;5021464;27;104557;-73
2022/09/24 06:20:25;;;;;;;7.67;6.90;;;;;;;14.96;76.51;98259.31;5015518;27;103020;-69
2022/09/24 06:22:56;;;;;;;7.55;6.95;;;;;;;15.02;76.25;98264.84;5037477;27;103305;-69
2022/09/24 06:25:24;;;;;;;8.17;7.37;;;;;;;15.05;75.94;98269.88;5037335;27;102722;-70
2022/09/24 06:27:59;;;;;;;7.90;7.30;;;;;;;15.06;76.11;98265.41;5036159;27;103986;-70
2022/09/24 06:30:28;;;;;;;8.35;7.65;;;;;;;15.10;76.12;98277.44;5038058;27;103293;-70
2022/09/24 06:33:01;;;;;;;9.70;8.80;;;;;;;14.86;76.99;98269.16;5044786;27;103264;-69
2022/09/24 06:35:29;;;;;;;9.57;8.65;;;;;;;14.58;78.39;98280.75;5023737;27;102920;-69
2022/09/24 06:37:57;;;;;;;9.67;8.87;;;;;;;14.81;77.83;98293.53;5040837;27;104116;-69
2022/09/24 06:40:25;;;;;;;8.30;7.65;;;;;;;14.97;77.25;98293.72;5021161;27;104153;-69
2022/09/24 06:42:56;;;;;;;9.20;8.30;;;;;;;15.06;76.85;98297.31;5045086;27;103283;-69
2022/09/24 06:45:24;;;;;;;7.95;7.25;;;;;;;15.25;76.36;98291.88;5040565;27;103523;-68
2022/09/24 06:47:52;;;;;;;7.95;7.22;;;;;;;15.28;76.09;98282.75;5040022;27;103726;-69
2022/09/24 06:50:23;;;;;;;8.10;7.30;;;;;;;15.42;75.55;98283.09;5036942;27;103363;-68
2022/09/24 06:52:51;;;;;;;6.90;6.30;;;;;;;15.48;75.19;98285.19;5039317;27;103447;-70
2022/09/24 06:55:19;;;;;;;9.15;8.30;;;;;;;15.51;74.96;98284.88;5041957;27;102788;-69
2022/09/24 06:57:47;;;;;;;7.68;6.97;;;;;;;15.57;74.86;98291.44;5023930;27;103192;-69
2022/09/24 07:00:17;;;;;;;7.15;6.57;;;;;;;15.63;74.73;98291.63;5036163;27;103693;-69
2022/09/24 07:02:51;;;;;;;8.83;8.03;;;;;;;15.61;74.78;98288.28;5023405;27;103599;-69
2022/09/24 07:05:19;;;;;;;8.27;7.57;;;;;;;15.65;74.42;98286.16;5040244;27;102629;-69
2022/09/24 07:07:48;;;;;;;8.02;7.32;;;;;;;15.73;74.87;98280.06;5040826;27;103945;-69
2022/09/24 07:10:18;;;;;;;6.30;5.80;;;;;;;15.92;74.39;98285.22;5037672;27;104359;-68
2022/09/24 07:12:46;;;;;;;7.10;6.50;;;;;;;16.04;73.82;98282.19;5020657;27;103472;-69
2022/09/24 07:15:14;;;;;;;8.88;8.15;;;;;;;15.80;74.51;98292.66;5018703;27;102725;-69
2022/09/24 07:17:41;;;;;;;8.05;7.20;;;;;;;15.90;73.98;98288.06;5037686;27;102915;-69
2022/09/24 07:20:09;;;;;;;6.90;6.30;;;;;;;16.03;73.44;98306.28;5030926;27;104349;-70
2022/09/24 07:22:39;;;;;;;8.87;8.07;;;;;;;16.08;72.70;98296.03;5032815;27;103423;-69
2022/09/24 07:25:11;;;;;;;7.60;6.90;;;;;;;15.86;74.23;98296.53;5039128;27;102879;-70
2022/09/24 07:27:39;;;;;;;7.77;7.13;;;;;;;16.05;73.98;98299.00;5038035;27;102947;-69
2022/09/24 07:30:09;;;;;;;8.47;7.67;;;;;;;16.12;74.21;98305.38;5037258;27;103640;-69
2022/09/24 07:32:37;;;;;;;9.07;8.27;;;;;;;16.06;73.42;98308.66;5021521;27;104173;-69
2022/09/24 07:35:06;;;;;;;8.30;7.60;;;;;;;16.06;73.01;98314.81;5040222;27;102709;-69
2022/09/24 07:37:34;;;;;;;8.98;8.07;;;;;;;16.22;73.64;98316.81;5038440;27;103742;-69
2022/09/24 07:40:01;;;;;;;10.27;9.27;;;;;;;16.02;72.90;98315.31;5035744;27;103425;-69
2022/09/24 07:42:31;;;;;;;9.43;8.45;;;;;;;16.20;73.64;98324.94;5036011;27;103205;-69
2022/09/24 07:44:59;;;;;;;7.32;6.72;;;;;;;16.39;72.70;98321.25;5036070;27;102607;-69
2022/09/24 07:47:27;;;;;;;8.93;8.13;;;;;;;16.45;72.16;98328.59;5043067;27;103980;-69
2022/09/24 07:49:55;;;;;;;6.63;6.13;;;;;;;16.55;72.17;98321.38;5037962;27;104019;-69
2022/09/24 07:52:23;;;;;;;7.13;6.53;;;;;;;16.66;72.17;98331.78;5013969;27;105225;-69
2022/09/24 07:54:51;;;;;;;8.15;7.45;;;;;;;16.72;71.58;98328.50;5030698;27;102784;-69
2022/09/24 07:57:18;;;;;;;8.50;7.60;;;;;;;16.70;72.28;98330.47;5033010;27;102791;-69
2022/09/24 07:59:50;;;;;;;6.93;6.38;;;;;;;16.85;71.66;98332.53;5031404;27;104401;-69
2022/09/24 08:02:19;;;;;;;7.32;6.65;;;;;;;16.94;71.05;98328.94;5033369;27;103229;-67
2022/09/24 08:04:47;;;;;;;8.50;7.70;;;;;;;16.96;71.07;98325.09;5031944;27;102977;-69
2022/09/24 08:07:14;;;;;;;7.65;6.65;;;;;;;17.09;71.23;98322.00;5033187;27;103246;-69
2022/09/24 08:09:42;;;;;;;8.27;7.50;;;;;;;17.06;71.25;98327.66;5014176;27;104397;-69
2022/09/24 08:12:11;;;;;;;9.93;8.75;;;;;;;16.74;71.07;98326.50;5043341;27;103203;-69
2022/09/24 08:14:40;;;;;;;10.85;9.35;;;;;;;16.56;71.96;98325.72;5027325;27;102842;-69
2022/09/24 08:17:09;;;;;;;8.65;7.80;;;;;;;16.82;71.39;98323.03;5048335;27;103167;-67
2022/09/24 08:19:42;;;;;;;8.90;7.45;;;;;;;17.01;70.98;98327.31;5049858;27;104049;-69
2022/09/24 08:22:09;;;;;;;8.85;7.97;;;;;;;17.18;71.48;98334.34;5034133;27;104376;-68
2022/09/24 08:24:37;;;;;;;9.57;8.30;;;;;;;17.36;71.36;98329.75;5028242;27;103904;-70
2022/09/24 08:27:05;;;;;;;7.43;6.83;;;;;;;17.44;69.46;98323.59;5042897;27;104452;-69
2022/09/24 08:29:33;;;;;;;9.57;8.63;;;;;;;17.12;69.94;98335.03;5051440;27;104061;-69
2022/09/24 08:32:03;;;;;;;10.20;8.63;;;;;;;16.81;72.70;98343.53;5037457;27;103571;-70
2022/09/24 08:34:37;;;;;;;7.90;7.15;;;;;;;17.19;72.04;98330.72;5035062;27;103687;-70
2022/09/24 08:37:04;;;;;;;8.98;8.18;;;;;;;17.49;71.66;98338.13;5025590;27;103833;-69
2022/09/24 08:39:32;;;;;;;8.45;7.75;;;;;;;17.67;70.30;98330.88;5028917;27;105567;-69
2022/09/24 08:42:03;;;;;;;8.35;7.55;;;;;;;17.94;69.46;98333.25;5025454;27;103277;-70
2022/09/24 08:47:36;;;;;;;10.15;8.50;;;;;;;18.22;68.83;98330.25;5021964;27;102955;-69
2022/09/24 08:50:14;;;;;;;7.93;7.13;;;;;;;18.29;68.50;98336.59;5024812;27;104030;-70
2022/09/24 08:52:55;;;;;;;9.35;8.55;;;;;;;18.19;68.69;98338.63;5017300;27;102971;-69
2022/09/24 08:55:28;;;;;;;9.00;8.10;;;;;;;18.36;68.04;98340.28;5046254;27;102871;-69
2022/09/24 08:58:08;;;;;;;8.70;8.00;;;;;;;18.25;68.10;98335.25;5057196;27;102594;-70
2022/09/24 09:00:43;;;;;;;9.70;8.80;;;;;;;18.10;69.05;98342.28;5054144;27;103995;-70
2022/09/24 09:03:21;;;;;;;9.17;8.23;;;;;;;18.42;67.91;98343.13;5051977;27;103493;-70
2022/09/24 09:05:56;;;;;;;9.40;8.35;;;;;;;18.71;68.34;98345.28;5054974;27;103088;-70
2022/09/24 09:08:34;;;;;;;8.65;7.75;;;;;;;18.87;65.50;98337.22;5055491;27;102704;-70
2022/09/24 09:11:28;;;;;;;8.20;7.55;;;;;;;19.23;65.28;98337.56;5052348;27;103420;-70
2022/09/24 09:14:00;;;;;;;9.18;8.35;;;;;;;19.06;66.79;98339.47;5056557;27;103241;-70
2022/09/24 09:16:39;;;;;;;12.32;9.23;;;;;;;17.95;69.22;98336.78;5056320;27;103441;-70
2022/09/24 09:19:14;;;;;;;8.88;8.02;;;;;;;18.53;65.63;98333.94;5054819;27;104491;-70
2022/09/24 09:21:46;;;;;;;7.80;7.10;;;;;;;19.73;64.18;98331.84;5052727;27;103347;-69
2022/09/24 09:24:17;;;;;;;8.38;7.53;;;;;;;20.46;59.68;98329.47;5052529;27;103296;-70
2022/09/24 09:26:49;;;;;;;8.23;7.32;;;;;;;19.87;61.25;98330.25;5052840;27;102656;-69
2022/09/24 09:29:17;;;;;;;7.00;6.43;;;;;;;20.00;62.26;98336.69;5048977;27;103629;-69
2022/09/24 09:31:54;;;;;;;6.80;6.10;;;;;;;20.41;59.59;98328.31;5037390;27;104395;-70
2022/09/24 09:34:39;;;;;;;8.53;6.70;;;;;;;20.47;60.36;98324.91;5037715;27;102975;-69
2022/09/24 09:37:19;;;;;;;7.28;6.03;;;;;;;20.44;59.72;98323.44;5048109;27;102809;-71
2022/09/24 09:40:08;;;;;;;5.60;5.10;;;;;;;20.66;58.79;98332.47;5010131;27;104424;-70
2022/09/24 09:42:39;;;;;;;5.90;5.30;;;;;;;20.01;59.63;98333.00;5045383;27;103307;-70
2022/09/24 09:45:23;;;;;;;3.95;3.60;;;;;;;20.36;59.50;98317.28;5047773;27;104178;-70
2022/09/24 09:47:56;;;;;;;5.43;4.95;;;;;;;20.47;59.83;98316.84;5049424;27;102902;-70
2022/09/24 09:50:28;;;;;;;5.27;4.73;;;;;;;20.42;61.14;98324.63;5048082;27;103131;-71
2022/09/24 09:52:57;;;;;;;44.70;16.77;;;;;;;20.18;61.15;98328.34;5048775;27;104387;-71
2022/09/24 09:55:27;;;;;;;12.87;7.10;;;;;;;20.21;63.05;98315.38;5028780;27;103242;-71
2022/09/24 09:58:09;;;;;;;6.07;5.47;;;;;;;20.11;61.46;98322.00;5034236;27;103526;-71
2022/09/24 10:00:40;;;;;;;6.17;5.57;;;;;;;18.43;65.38;98325.22;5034602;27;102875;-70
2022/09/24 10:03:22;;;;;;;4.47;4.07;;;;;;;19.53;63.19;98318.06;5032013;27;103279;-71
2022/09/24 10:05:54;;;;;;;4.13;3.75;;;;;;;20.16;62.33;98299.00;5032597;27;103628;-70
2022/09/24 10:08:24;;;;;;;28.10;5.43;;;;;;;20.41;62.35;98299.63;5032591;27;102952;-71
2022/09/24 10:10:55;;;;;;;4.63;4.07;;;;;;;20.58;62.18;98308.38;5016260;27;103854;-70
2022/09/24 10:13:23;;;;;;;4.47;4.07;;;;;;;20.67;63.88;98312.63;5036712;27;103833;-73
2022/09/24 10:15:53;;;;;;;3.20;2.90;;;;;;;20.01;67.48;98311.53;5037035;27;103595;-72
2022/09/24 10:18:30;;;;;;;3.60;2.57;;;;;;;19.72;70.31;98311.41;5038751;27;103103;-73
2022/09/24 10:21:01;;;;;;;2.70;2.25;;;;;;;19.81;69.65;98320.22;5037975;27;103818;-72
2022/09/24 10:23:35;;;;;;;2.90;2.42;;;;;;;19.80;70.33;98322.06;5040257;27;103366;-72
2022/09/24 10:26:05;;;;;;;2.63;2.42;;;;;;;19.66;71.56;98322.84;5012786;27;103217;-72
2022/09/24 10:31:22;;;;;;;2.67;2.42;;;;;;;19.35;72.76;98319.28;5040249;27;104231;-72
2022/09/24 10:33:53;;;;;;;4.38;2.55;;;;;;;19.25;73.85;98319.53;5037020;27;103031;-70
2022/09/24 10:36:23;;;;;;;2.47;2.28;;;;;;;19.45;72.81;98309.25;5035764;27;103272;-72
2022/09/24 10:39:04;;;;;;;2.60;2.13;;;;;;;19.53;72.77;98323.44;5005696;27;103431;-69
2022/09/24 10:41:34;;;;;;;2.45;2.25;;;;;;;19.48;73.19;98322.28;5021160;27;103953;-71
2022/09/24 10:44:05;;;;;;;2.57;2.10;;;;;;;19.35;72.50;98327.31;5032596;27;103193;-74
2022/09/24 10:47:03;;;;;;;3.30;2.50;;;;;;;19.34;73.16;98326.47;5031951;27;104008;-74
2022/09/24 10:49:47;;;;;;;4.13;2.53;;;;;;;19.06;75.68;98315.41;5028063;27;103155;-71
2022/09/24 10:52:33;;;;;;;3.03;2.42;;;;;;;19.28;74.43;98321.84;5030014;27;103847;-70
2022/09/24 10:55:14;;;;;;;3.88;2.40;;;;;;;19.53;73.22;98322.59;5023616;27;103997;-70
2022/09/24 10:57:54;;;;;;;3.03;2.60;;;;;;;19.31;73.01;98328.69;5030993;27;104064;-72
2022/09/24 11:00:24;;;;;;;1.95;1.83;;;;;;;19.83;71.62;98316.34;5030195;27;102665;-71
2022/09/24 11:03:28;;;;;;;3.08;2.67;;;;;;;19.86;71.74;98310.63;5033987;27;104538;-69
2022/09/24 11:06:01;;;;;;;3.00;2.75;;;;;;;20.07;70.97;98316.16;4970525;27;108507;-70
2022/09/24 11:08:51;;;;;;;3.15;2.85;;;;;;;20.28;71.20;98312.00;5029508;27;103298;-72
2022/09/24 11:11:31;;;;;;;3.03;2.70;;;;;;;20.47;69.61;98312.31;5030023;27;102927;-72
2022/09/24 11:14:13;;;;;;;3.00;2.80;;;;;;;20.87;68.29;98305.72;5021795;27;102950;-71
2022/09/24 11:17:03;;;;;;;2.60;2.40;;;;;;;21.15;67.01;98305.91;5030909;27;104097;-71
2022/09/24 11:19:59;;;;;;;2.83;2.50;;;;;;;21.30;67.63;98317.47;5008498;27;103274;-70
2022/09/24 11:22:43;;;;;;;3.30;2.90;;;;;;;20.75;71.68;98310.69;5023224;27;103675;-73
2022/09/24 11:25:25;;;;;;;3.40;2.70;;;;;;;20.29;70.99;98311.00;5026145;27;102799;-71
2022/09/24 11:28:09;;;;;;;2.65;2.45;;;;;;;20.48;70.30;98308.66;5027387;27;103732;-71
2022/09/24 11:30:46;;;;;;;3.15;2.70;;;;;;;20.45;69.45;98303.63;5014831;27;104153;-70
2022/09/24 11:33:29;;;;;;;2.60;2.40;;;;;;;20.58;68.64;98303.00;5035980;27;102847;-69
2022/09/24 11:36:15;;;;;;;3.00;2.50;;;;;;;20.70;68.77;98306.91;5047051;27;102729;-69
2022/09/24 11:39:03;;;;;;;2.72;2.40;;;;;;;20.42;70.17;98303.16;5049357;27;103338;-70
2022/09/24 11:41:44;;;;;;;2.63;2.42;;;;;;;19.94;70.46;98302.53;5030628;27;103312;-71
2022/09/24 11:44:45;;;;;;;2.65;2.45;;;;;;;19.61;70.06;98301.09;5014910;27;104176;-71
2022/09/24 11:47:29;;;;;;;3.00;2.40;;;;;;;19.92;69.19;98296.53;5052186;27;104050;-69
2022/09/24 11:50:15;;;;;;;2.22;2.03;;;;;;;20.51;67.83;98291.34;5032537;27;103310;-71
2022/09/24 11:52:52;;;;;;;2.40;2.20;;;;;;;20.59;68.54;98293.94;5029759;27;103229;-70
2022/09/24 11:55:30;;;;;;;2.72;2.53;;;;;;;19.95;70.26;98296.16;5034516;27;103274;-70
2022/09/24 11:58:13;;;;;;;2.38;2.17;;;;;;;20.17;69.99;98287.28;5043994;27;102683;-70
2022/09/24 12:00:46;;;;;;;2.65;2.45;;;;;;;20.26;68.41;98292.59;5050174;27;103735;-73
2022/09/24 12:03:20;;;;;;;2.75;2.55;;;;;;;19.99;69.61;98286.75;5053336;27;103338;-70